Time;durP1;ratioP1;P1;durP2;ratioP2;P2;SDS_P1;SDS_P2;PMS_P1;PMS_P2;Temp;Humidity;BMP_temperature;BMP_pressure;BME280_temperature;BME280_humidity;BME280_pressure;Samples;Min_cycle;Max_cycle;Signal;HPM_P1;HPM_P2
2023/07/05 00:00:41;;;;;;;0.73;0.73;;;;;;;;;;5047994;28;20215;-60
2023/07/05 00:03:10;;;;;;;0.60;0.60;;;;;;;;;;5047765;28;20226;-60
2023/07/05 00:05:37;;;;;;;1.00;0.93;;;;;;;;;;5048049;28;20658;-61
2023/07/05 00:08:05;;;;;;;1.38;1.13;;;;;;;;;;5047218;28;20208;-60
2023/07/05 00:10:32;;;;;;;1.42;1.10;;;;;;;;;;5047305;28;20218;-60
2023/07/05 00:13:00;;;;;;;0.60;0.60;;;;;;;;;;5046577;28;20231;-61
2023/07/05 00:15:27;;;;;;;1.10;0.65;;;;;;;;;;5047429;28;20295;-60
2023/07/05 00:17:54;;;;;;;1.48;1.20;;;;;;;;;;5042973;28;20204;-60
2023/07/05 00:20:23;;;;;;;1.20;1.02;;;;;;;;;;5046597;28;20212;-60
2023/07/05 00:22:50;;;;;;;0.90;0.90;;;;;;;;;;5035943;28;20196;-61
2023/07/05 00:25:17;;;;;;;3.53;1.05;;;;;;;;;;5047824;28;20230;-61
2023/07/05 00:27:44;;;;;;;5.03;1.10;;;;;;;;;;5047034;28;20228;-61
2023/07/05 00:30:12;;;;;;;1.13;1.08;;;;;;;;;;5047264;28;20226;-61
2023/07/05 00:33:00;;;;;;;0.63;0.63;;;;;;;;;;5047166;28;20207;-61
2023/07/05 00:35:29;;;;;;;2.10;1.20;;;;;;;;;;5047835;28;20208;-61
2023/07/05 00:37:56;;;;;;;0.82;0.82;;;;;;;;;;5047130;28;20711;-60
2023/07/05 00:40:23;;;;;;;0.77;0.77;;;;;;;;;;5047655;28;20208;-61
2023/07/05 00:42:50;;;;;;;3.25;0.98;;;;;;;;;;5047268;28;20720;-61
2023/07/05 00:45:35;;;;;;;0.80;0.80;;;;;;;;;;5046557;28;20227;-61
2023/07/05 00:48:02;;;;;;;1.52;1.20;;;;;;;;;;5046949;28;20234;-62
2023/07/05 00:50:35;;;;;;;1.45;0.77;;;;;;;;;;5047237;28;20750;-61
2023/07/05 00:53:03;;;;;;;0.73;0.60;;;;;;;;;;5047499;28;20234;-61
2023/07/05 00:55:30;;;;;;;0.95;0.95;;;;;;;;;;5046142;28;20808;-61
2023/07/05 00:57:57;;;;;;;1.30;0.93;;;;;;;;;;5045830;28;20355;-61
2023/07/05 01:00:24;;;;;;;2.05;0.80;;;;;;;;;;5044206;28;20216;-62
2023/07/05 01:02:53;;;;;;;2.88;1.13;;;;;;;;;;5045216;28;20223;-62
2023/07/05 01:05:21;;;;;;;1.02;1.02;;;;;;;;;;5044091;28;20212;-62
2023/07/05 01:07:49;;;;;;;1.70;0.90;;;;;;;;;;5046742;28;20203;-61
2023/07/05 01:10:17;;;;;;;0.80;0.80;;;;;;;;;;5047481;28;20677;-61
2023/07/05 01:12:46;;;;;;;0.85;0.85;;;;;;;;;;5045773;28;20669;-62
2023/07/05 01:15:16;;;;;;;1.02;0.70;;;;;;;;;;5046464;28;20203;-61
2023/07/05 01:17:45;;;;;;;0.70;0.70;;;;;;;;;;5046159;28;20222;-62
2023/07/05 01:20:16;;;;;;;0.70;0.70;;;;;;;;;;5046561;28;20204;-62
2023/07/05 01:22:52;;;;;;;1.20;1.20;;;;;;;;;;5046664;28;20207;-61
2023/07/05 01:25:32;;;;;;;1.42;0.73;;;;;;;;;;5046771;28;20199;-61
2023/07/05 01:28:08;;;;;;;0.80;0.80;;;;;;;;;;5046519;28;20291;-61
2023/07/05 01:30:52;;;;;;;0.80;0.80;;;;;;;;;;5046521;28;20211;-61
2023/07/05 01:33:22;;;;;;;4.03;1.00;;;;;;;;;;5047264;28;20219;-62
2023/07/05 01:35:50;;;;;;;1.55;0.77;;;;;;;;;;5053505;28;20669;-61
2023/07/05 01:38:17;;;;;;;0.90;0.90;;;;;;;;;;5053015;28;20210;-61
2023/07/05 01:40:56;;;;;;;0.88;0.88;;;;;;;;;;5053181;28;20243;-62
2023/07/05 01:43:24;;;;;;;0.90;0.90;;;;;;;;;;5052774;28;20729;-62
2023/07/05 01:45:59;;;;;;;2.90;1.23;;;;;;;;;;5052109;28;20257;-62
2023/07/05 01:48:31;;;;;;;0.85;0.85;;;;;;;;;;5052845;28;20899;-62
2023/07/05 01:51:00;;;;;;;1.85;1.00;;;;;;;;;;5052069;28;20259;-62
2023/07/05 01:53:30;;;;;;;1.38;0.82;;;;;;;;;;5053528;28;20231;-62
2023/07/05 01:56:00;;;;;;;3.17;0.82;;;;;;;;;;5037616;28;20223;-61
2023/07/05 01:58:29;;;;;;;1.05;1.00;;;;;;;;;;5052441;28;20200;-62
2023/07/05 02:00:57;;;;;;;1.00;0.93;;;;;;;;;;5052826;28;20203;-62
2023/07/05 02:03:25;;;;;;;1.05;0.90;;;;;;;;;;5052305;28;20871;-62
2023/07/05 02:05:54;;;;;;;1.13;0.98;;;;;;;;;;5053378;28;20208;-62
2023/07/05 02:08:25;;;;;;;2.95;0.90;;;;;;;;;;5052893;28;20212;-62
2023/07/05 02:10:52;;;;;;;1.40;0.80;;;;;;;;;;5052475;28;20294;-61
2023/07/05 02:13:19;;;;;;;0.95;0.95;;;;;;;;;;5052962;28;20342;-63
2023/07/05 02:15:48;;;;;;;3.35;0.82;;;;;;;;;;5053383;28;20218;-63
2023/07/05 02:18:15;;;;;;;0.80;0.80;;;;;;;;;;5052715;28;20323;-62
2023/07/05 02:20:42;;;;;;;0.90;0.90;;;;;;;;;;5052786;28;20199;-62
2023/07/05 02:23:11;;;;;;;0.60;0.60;;;;;;;;;;5052801;28;20305;-62
2023/07/05 02:25:38;;;;;;;0.65;0.65;;;;;;;;;;5052728;28;20218;-62
2023/07/05 02:28:06;;;;;;;2.47;0.88;;;;;;;;;;5052831;28;20388;-62
2023/07/05 02:30:35;;;;;;;0.88;0.88;;;;;;;;;;5052799;28;20212;-62
2023/07/05 02:33:02;;;;;;;0.82;0.82;;;;;;;;;;5052775;28;20204;-63
2023/07/05 02:35:29;;;;;;;1.13;0.90;;;;;;;;;;5051904;28;20231;-61
2023/07/05 02:37:56;;;;;;;1.08;0.93;;;;;;;;;;5052937;28;20204;-62
2023/07/05 02:40:25;;;;;;;2.95;0.95;;;;;;;;;;5052918;28;20226;-61
2023/07/05 02:42:52;;;;;;;0.70;0.70;;;;;;;;;;5051950;28;20776;-62
2023/07/05 02:45:19;;;;;;;1.10;1.10;;;;;;;;;;5050385;28;20227;-62
2023/07/05 02:47:46;;;;;;;0.80;0.73;;;;;;;;;;5049549;28;20204;-62
2023/07/05 02:50:14;;;;;;;2.50;1.10;;;;;;;;;;5046763;28;20592;-62
2023/07/05 02:52:41;;;;;;;1.00;0.90;;;;;;;;;;5049389;28;20203;-62
2023/07/05 02:55:09;;;;;;;0.57;0.57;;;;;;;;;;5048463;28;20224;-62
2023/07/05 02:57:37;;;;;;;0.88;0.88;;;;;;;;;;5048664;28;20257;-62
2023/07/05 03:00:06;;;;;;;1.27;1.13;;;;;;;;;;5048959;28;20658;-62
2023/07/05 03:02:33;;;;;;;1.10;1.00;;;;;;;;;;5048719;28;20219;-62
2023/07/05 03:05:07;;;;;;;0.82;0.82;;;;;;;;;;5049212;28;20828;-62
2023/07/05 03:07:34;;;;;;;0.82;0.82;;;;;;;;;;5048300;28;20200;-62
2023/07/05 03:10:01;;;;;;;0.80;0.80;;;;;;;;;;5049155;28;20642;-62
2023/07/05 03:12:28;;;;;;;1.08;1.08;;;;;;;;;;5049260;28;20206;-62
2023/07/05 03:14:56;;;;;;;2.03;0.80;;;;;;;;;;5048397;28;20220;-63
2023/07/05 03:17:23;;;;;;;2.20;0.82;;;;;;;;;;5048365;28;20487;-62
2023/07/05 03:19:52;;;;;;;1.15;1.00;;;;;;;;;;5048391;28;20210;-62
2023/07/05 03:22:19;;;;;;;1.15;0.95;;;;;;;;;;5047703;28;20210;-62
2023/07/05 03:24:46;;;;;;;1.20;1.10;;;;;;;;;;5048501;28;20199;-62
2023/07/05 03:27:13;;;;;;;1.05;1.05;;;;;;;;;;5048251;28;20658;-62
2023/07/05 03:29:40;;;;;;;1.15;1.02;;;;;;;;;;5048942;28;20211;-62
2023/07/05 03:32:09;;;;;;;1.17;1.15;;;;;;;;;;5048649;28;20239;-62
2023/07/05 03:34:36;;;;;;;1.23;1.13;;;;;;;;;;5048161;28;20289;-61
2023/07/05 03:37:03;;;;;;;0.88;0.88;;;;;;;;;;5048838;28;20277;-62
2023/07/05 03:39:30;;;;;;;1.48;1.42;;;;;;;;;;5048813;28;20241;-62
2023/07/05 03:41:57;;;;;;;1.08;1.08;;;;;;;;;;5047903;28;20347;-62
2023/07/05 03:44:24;;;;;;;2.08;1.30;;;;;;;;;;5048831;28;20231;-62
2023/07/05 03:46:51;;;;;;;1.05;1.05;;;;;;;;;;5047876;28;20934;-62
2023/07/05 03:49:20;;;;;;;1.17;1.10;;;;;;;;;;5048293;28;20208;-61
2023/07/05 03:51:47;;;;;;;1.00;1.00;;;;;;;;;;5048443;28;20196;-62
2023/07/05 03:54:14;;;;;;;1.30;1.23;;;;;;;;;;5046660;28;20231;-61
2023/07/05 03:56:41;;;;;;;1.10;1.10;;;;;;;;;;5047883;28;20203;-62
2023/07/05 03:59:09;;;;;;;3.58;1.20;;;;;;;;;;5046356;28;20211;-62
2023/07/05 04:01:36;;;;;;;1.40;1.40;;;;;;;;;;5045484;28;20298;-62
2023/07/05 04:04:03;;;;;;;1.77;1.50;;;;;;;;;;5046456;28;20257;-62
2023/07/05 04:06:32;;;;;;;1.27;1.27;;;;;;;;;;5047339;28;20204;-62
2023/07/05 04:09:00;;;;;;;2.70;1.27;;;;;;;;;;5047740;28;20880;-62
2023/07/05 04:11:27;;;;;;;1.30;1.10;;;;;;;;;;5048050;28;20234;-63
2023/07/05 04:13:55;;;;;;;1.60;1.50;;;;;;;;;;5047755;28;20273;-61
2023/07/05 04:16:23;;;;;;;1.80;1.40;;;;;;;;;;5045743;28;20265;-65
2023/07/05 04:18:51;;;;;;;1.27;1.10;;;;;;;;;;5046108;28;20208;-63
2023/07/05 04:21:19;;;;;;;1.55;1.45;;;;;;;;;;5047757;28;20233;-62
2023/07/05 04:23:47;;;;;;;1.40;1.40;;;;;;;;;;5046567;28;20203;-62
2023/07/05 04:26:15;;;;;;;0.90;0.90;;;;;;;;;;5048125;28;20207;-62
2023/07/05 04:28:43;;;;;;;0.93;0.93;;;;;;;;;;5046883;28;20211;-62
2023/07/05 04:31:12;;;;;;;1.10;1.10;;;;;;;;;;5048302;28;20544;-62
2023/07/05 04:33:39;;;;;;;2.10;0.90;;;;;;;;;;5047253;28;20690;-60
2023/07/05 04:36:06;;;;;;;1.27;1.00;;;;;;;;;;5046423;28;20228;-62
2023/07/05 04:38:33;;;;;;;1.05;0.95;;;;;;;;;;5047714;28;20599;-62
2023/07/05 04:41:02;;;;;;;1.17;1.10;;;;;;;;;;5046711;28;20204;-61
2023/07/05 04:43:29;;;;;;;0.90;0.90;;;;;;;;;;5047229;28;20231;-62
2023/07/05 04:45:57;;;;;;;0.90;0.90;;;;;;;;;;5041876;28;20239;-62
2023/07/05 04:48:24;;;;;;;1.30;1.20;;;;;;;;;;5047484;28;20195;-62
2023/07/05 04:50:54;;;;;;;0.80;0.80;;;;;;;;;;5035846;28;20211;-62
2023/07/05 04:53:21;;;;;;;0.82;0.77;;;;;;;;;;5047466;28;20207;-63
2023/07/05 04:55:49;;;;;;;1.75;0.90;;;;;;;;;;5047502;28;20227;-62
2023/07/05 04:58:17;;;;;;;1.83;0.90;;;;;;;;;;5046818;28;20219;-63
2023/07/05 05:00:46;;;;;;;0.68;0.68;;;;;;;;;;5042353;28;20449;-62
2023/07/05 05:03:13;;;;;;;1.00;1.00;;;;;;;;;;5045357;28;20211;-63
2023/07/05 05:05:40;;;;;;;0.70;0.70;;;;;;;;;;5044940;28;20204;-63
2023/07/05 05:08:07;;;;;;;0.70;0.70;;;;;;;;;;5045061;28;20322;-63
2023/07/05 05:10:36;;;;;;;0.68;0.68;;;;;;;;;;5046095;28;20668;-63
2023/07/05 05:13:03;;;;;;;0.50;0.50;;;;;;;;;;5046495;28;20215;-62
2023/07/05 05:15:34;;;;;;;0.95;0.68;;;;;;;;;;5046677;28;20249;-63
2023/07/05 05:18:01;;;;;;;0.60;0.60;;;;;;;;;;5046793;28;20221;-63
2023/07/05 05:20:29;;;;;;;0.85;0.60;;;;;;;;;;5047191;28;20681;-62
2023/07/05 05:22:56;;;;;;;0.90;0.90;;;;;;;;;;5045167;28;20662;-63
2023/07/05 05:25:24;;;;;;;0.70;0.70;;;;;;;;;;5044382;28;20478;-63
2023/07/05 05:27:51;;;;;;;0.70;0.70;;;;;;;;;;5037786;28;20213;-62
2023/07/05 05:30:18;;;;;;;0.85;0.85;;;;;;;;;;5045931;28;20211;-62
2023/07/05 05:32:47;;;;;;;0.70;0.70;;;;;;;;;;5043492;28;20203;-63
2023/07/05 05:35:15;;;;;;;0.70;0.70;;;;;;;;;;5044999;28;20228;-63
2023/07/05 05:37:42;;;;;;;2.95;0.80;;;;;;;;;;5038322;28;20679;-62
2023/07/05 05:40:10;;;;;;;0.63;0.50;;;;;;;;;;5046667;28;20686;-62
2023/07/05 05:42:37;;;;;;;1.40;0.60;;;;;;;;;;5046633;28;20232;-63
2023/07/05 05:45:04;;;;;;;0.95;0.60;;;;;;;;;;5047433;28;20736;-63
2023/07/05 05:47:31;;;;;;;8.98;2.20;;;;;;;;;;5044971;28;20212;-60
2023/07/05 05:50:00;;;;;;;2.65;1.52;;;;;;;;;;5045999;28;20218;-60
2023/07/05 05:52:27;;;;;;;1.35;1.25;;;;;;;;;;5046803;28;20200;-61
2023/07/05 05:54:54;;;;;;;0.98;0.88;;;;;;;;;;5046168;28;20277;-60
2023/07/05 05:57:21;;;;;;;1.48;0.82;;;;;;;;;;5043971;28;20203;-61
2023/07/05 05:59:48;;;;;;;0.70;0.70;;;;;;;;;;5046197;28;20207;-60
2023/07/05 06:02:16;;;;;;;0.95;0.82;;;;;;;;;;5046476;28;20673;-60
2023/07/05 06:04:43;;;;;;;0.60;0.60;;;;;;;;;;5045961;28;20281;-61
2023/07/05 06:07:11;;;;;;;0.70;0.70;;;;;;;;;;5045442;28;20613;-58
2023/07/05 06:09:39;;;;;;;0.60;0.60;;;;;;;;;;5046381;28;20200;-60
2023/07/05 06:12:06;;;;;;;0.57;0.57;;;;;;;;;;5046644;28;20239;-60
2023/07/05 06:14:33;;;;;;;0.70;0.70;;;;;;;;;;5046428;28;20203;-60
2023/07/05 06:17:00;;;;;;;0.70;0.70;;;;;;;;;;5045123;28;20207;-60
2023/07/05 06:19:27;;;;;;;0.80;0.80;;;;;;;;;;5040987;28;20838;-59
2023/07/05 06:21:54;;;;;;;1.00;1.00;;;;;;;;;;5050324;28;20579;-59
2023/07/05 06:24:23;;;;;;;1.52;0.90;;;;;;;;;;5049328;28;20215;-60
2023/07/05 06:26:50;;;;;;;0.88;0.88;;;;;;;;;;5049766;28;20214;-60
2023/07/05 06:29:17;;;;;;;2.15;1.15;;;;;;;;;;5050117;28;20223;-60
2023/07/05 06:31:44;;;;;;;1.05;1.05;;;;;;;;;;5049270;28;20257;-60
2023/07/05 06:34:11;;;;;;;0.98;0.98;;;;;;;;;;5036281;28;20212;-60
2023/07/05 06:36:38;;;;;;;1.20;1.10;;;;;;;;;;5048585;28;20231;-59
2023/07/05 06:39:05;;;;;;;1.23;1.17;;;;;;;;;;5049541;28;20560;-59
2023/07/05 06:41:33;;;;;;;0.88;0.88;;;;;;;;;;5049408;28;20315;-59
2023/07/05 06:44:01;;;;;;;2.78;1.00;;;;;;;;;;5045896;28;20247;-59
2023/07/05 06:46:28;;;;;;;1.60;1.10;;;;;;;;;;5047715;28;20199;-59
2023/07/05 06:48:55;;;;;;;1.05;0.95;;;;;;;;;;5049085;28;20251;-60
2023/07/05 06:51:24;;;;;;;1.13;1.13;;;;;;;;;;5049605;28;20208;-59
2023/07/05 06:53:51;;;;;;;1.33;1.30;;;;;;;;;;5049555;28;20595;-59
2023/07/05 06:56:18;;;;;;;1.15;0.98;;;;;;;;;;5042868;28;20232;-59
2023/07/05 06:58:47;;;;;;;1.50;1.40;;;;;;;;;;5042043;28;20215;-60
2023/07/05 07:01:14;;;;;;;1.30;1.30;;;;;;;;;;5050245;28;20204;-61
2023/07/05 07:03:41;;;;;;;1.08;1.08;;;;;;;;;;5049287;28;20212;-61
2023/07/05 07:06:09;;;;;;;1.63;1.52;;;;;;;;;;5044087;28;20254;-61
2023/07/05 07:08:38;;;;;;;1.60;1.60;;;;;;;;;;5033152;28;20216;-61
2023/07/05 07:11:06;;;;;;;1.20;1.20;;;;;;;;;;5033273;28;20299;-61
2023/07/05 07:13:33;;;;;;;1.83;1.48;;;;;;;;;;5029568;28;20211;-61
2023/07/05 07:16:03;;;;;;;2.15;1.42;;;;;;;;;;5029589;28;20880;-61
2023/07/05 07:18:31;;;;;;;1.25;1.25;;;;;;;;;;5029851;28;20219;-60
2023/07/05 07:20:59;;;;;;;1.45;1.35;;;;;;;;;;5041520;28;20590;-61
2023/07/05 07:23:26;;;;;;;3.33;1.23;;;;;;;;;;5044737;28;20243;-62
2023/07/05 07:26:00;;;;;;;1.65;1.65;;;;;;;;;;5048778;28;20231;-61
2023/07/05 07:28:27;;;;;;;1.50;1.40;;;;;;;;;;5047616;28;20253;-61
2023/07/05 07:30:54;;;;;;;1.10;1.10;;;;;;;;;;5047404;28;20208;-60
2023/07/05 07:33:23;;;;;;;1.60;1.38;;;;;;;;;;5047844;28;20221;-60
2023/07/05 07:35:50;;;;;;;1.58;1.48;;;;;;;;;;5044383;28;20230;-59
2023/07/05 07:38:17;;;;;;;0.82;0.82;;;;;;;;;;5048717;28;20212;-60
2023/07/05 07:40:44;;;;;;;1.10;1.05;;;;;;;;;;5048143;28;20208;-61
2023/07/05 07:43:12;;;;;;;1.33;1.23;;;;;;;;;;5048061;28;20302;-60
2023/07/05 07:45:39;;;;;;;2.03;1.20;;;;;;;;;;5048147;28;20238;-60
2023/07/05 07:48:06;;;;;;;0.90;0.90;;;;;;;;;;5047358;28;20211;-60
2023/07/05 07:50:34;;;;;;;1.90;1.20;;;;;;;;;;5048067;28;20570;-61
2023/07/05 07:53:01;;;;;;;1.35;1.30;;;;;;;;;;5047228;28;20299;-59
2023/07/05 07:55:31;;;;;;;1.20;1.05;;;;;;;;;;5048147;28;20274;-59
2023/07/05 07:57:58;;;;;;;1.35;1.25;;;;;;;;;;5047606;28;20206;-59
2023/07/05 08:00:26;;;;;;;0.90;0.90;;;;;;;;;;5048008;28;20741;-59
2023/07/05 08:02:53;;;;;;;0.90;0.90;;;;;;;;;;5045466;28;20212;-59
2023/07/05 08:05:23;;;;;;;0.80;0.80;;;;;;;;;;5047318;28;20230;-59
2023/07/05 08:07:51;;;;;;;1.08;0.98;;;;;;;;;;5046829;28;20223;-59
2023/07/05 08:10:20;;;;;;;1.30;1.20;;;;;;;;;;5047453;28;20215;-60
2023/07/05 08:12:47;;;;;;;1.02;1.02;;;;;;;;;;5045359;28;20848;-59
2023/07/05 08:15:14;;;;;;;1.30;1.30;;;;;;;;;;5040067;28;20231;-60
2023/07/05 08:17:41;;;;;;;2.05;1.30;;;;;;;;;;5047150;28;20195;-59
2023/07/05 08:20:08;;;;;;;0.93;0.93;;;;;;;;;;5047330;28;20584;-59
2023/07/05 08:22:35;;;;;;;0.98;0.93;;;;;;;;;;5044150;28;20290;-59
2023/07/05 08:25:04;;;;;;;0.88;0.88;;;;;;;;;;5040842;28;20234;-59
2023/07/05 08:27:31;;;;;;;1.42;1.33;;;;;;;;;;5046792;28;20432;-60
2023/07/05 08:29:58;;;;;;;2.35;1.20;;;;;;;;;;5043658;28;20645;-60
2023/07/05 08:32:25;;;;;;;1.00;1.00;;;;;;;;;;5047162;28;20212;-59
2023/07/05 08:34:52;;;;;;;1.38;1.00;;;;;;;;;;5046171;28;20616;-59
2023/07/05 08:37:19;;;;;;;0.95;0.95;;;;;;;;;;5046242;28;20249;-59
2023/07/05 08:39:46;;;;;;;1.75;1.00;;;;;;;;;;5046468;28;20199;-60
2023/07/05 08:42:22;;;;;;;1.10;1.10;;;;;;;;;;5046196;28;20223;-60
2023/07/05 08:44:54;;;;;;;1.20;0.95;;;;;;;;;;5046893;28;20247;-59
2023/07/05 08:47:25;;;;;;;2.42;1.00;;;;;;;;;;5046502;28;20208;-61
2023/07/05 08:49:56;;;;;;;1.00;1.00;;;;;;;;;;5043107;28;20212;-60
2023/07/05 08:52:26;;;;;;;0.90;0.90;;;;;;;;;;5046845;28;20214;-60
2023/07/05 08:54:55;;;;;;;1.35;0.88;;;;;;;;;;5046964;28;20199;-65
2023/07/05 08:57:27;;;;;;;1.05;1.00;;;;;;;;;;5027270;28;20709;-59
2023/07/05 08:59:57;;;;;;;1.27;1.27;;;;;;;;;;5035910;28;20215;-60
2023/07/05 09:02:25;;;;;;;1.20;1.20;;;;;;;;;;5044110;28;20303;-60
2023/07/05 09:04:53;;;;;;;1.88;0.90;;;;;;;;;;5044932;28;20359;-60
2023/07/05 09:07:22;;;;;;;1.05;1.05;;;;;;;;;;5046676;28;20294;-60
2023/07/05 09:09:52;;;;;;;0.70;0.70;;;;;;;;;;5032942;28;20216;-60
2023/07/05 09:12:23;;;;;;;1.08;1.00;;;;;;;;;;5045586;28;20217;-60
2023/07/05 09:15:09;;;;;;;0.82;0.80;;;;;;;;;;5045338;28;20210;-60
2023/07/05 09:17:50;;;;;;;1.02;0.90;;;;;;;;;;5029120;28;20321;-60
2023/07/05 09:20:23;;;;;;;0.60;0.60;;;;;;;;;;5046380;28;20302;-60
2023/07/05 09:22:51;;;;;;;0.52;0.52;;;;;;;;;;5046849;28;20658;-59
2023/07/05 09:25:21;;;;;;;1.15;0.70;;;;;;;;;;5046604;28;20207;-60
2023/07/05 09:27:50;;;;;;;0.47;0.47;;;;;;;;;;5046397;28;20208;-60
2023/07/05 09:30:24;;;;;;;0.52;0.52;;;;;;;;;;5043556;28;20227;-59
2023/07/05 09:32:55;;;;;;;0.50;0.50;;;;;;;;;;5043773;28;20207;-60
2023/07/05 09:35:25;;;;;;;0.75;0.40;;;;;;;;;;5045664;28;20211;-59
2023/07/05 09:37:54;;;;;;;0.73;0.40;;;;;;;;;;5045986;28;20312;-59
2023/07/05 09:40:24;;;;;;;1.00;0.50;;;;;;;;;;5045856;28;20670;-60
2023/07/05 09:42:53;;;;;;;0.38;0.38;;;;;;;;;;5044693;28;20227;-60
2023/07/05 09:45:21;;;;;;;0.43;0.43;;;;;;;;;;5039389;28;20235;-58
2023/07/05 09:47:50;;;;;;;0.50;0.50;;;;;;;;;;5046896;28;20211;-58
2023/07/05 09:50:19;;;;;;;2.42;0.60;;;;;;;;;;5033433;28;20727;-58
2023/07/05 09:52:47;;;;;;;0.57;0.57;;;;;;;;;;5039940;28;20704;-59
2023/07/05 09:55:16;;;;;;;0.57;0.57;;;;;;;;;;5042972;28;20227;-59
2023/07/05 09:57:43;;;;;;;0.40;0.40;;;;;;;;;;5050696;28;20223;-59
2023/07/05 10:00:25;;;;;;;0.50;0.50;;;;;;;;;;5049740;28;20552;-58
2023/07/05 10:02:55;;;;;;;0.80;0.40;;;;;;;;;;5048298;28;20299;-59
2023/07/05 10:05:26;;;;;;;0.40;0.40;;;;;;;;;;5050635;28;20203;-58
2023/07/05 10:07:55;;;;;;;1.88;0.57;;;;;;;;;;5049009;28;20286;-58
2023/07/05 10:10:25;;;;;;;0.63;0.63;;;;;;;;;;5044299;28;20201;-58
2023/07/05 10:13:00;;;;;;;0.50;0.50;;;;;;;;;;5049272;28;20540;-61
2023/07/05 10:15:27;;;;;;;0.50;0.50;;;;;;;;;;5048725;28;20207;-61
2023/07/05 10:17:57;;;;;;;1.05;0.55;;;;;;;;;;5037402;28;20224;-62
2023/07/05 10:20:25;;;;;;;0.40;0.40;;;;;;;;;;5044165;28;20666;-62
2023/07/05 10:23:01;;;;;;;0.50;0.50;;;;;;;;;;5040334;28;20222;-61
2023/07/05 10:25:33;;;;;;;0.30;0.30;;;;;;;;;;5049887;28;20568;-61
2023/07/05 10:28:00;;;;;;;0.52;0.40;;;;;;;;;;5040361;28;20201;-61
2023/07/05 10:30:29;;;;;;;1.70;0.47;;;;;;;;;;5039272;28;20637;-61
2023/07/05 10:33:11;;;;;;;0.50;0.50;;;;;;;;;;5048624;28;20230;-61
2023/07/05 10:35:45;;;;;;;3.47;0.50;;;;;;;;;;5035162;28;20204;-61
2023/07/05 10:38:19;;;;;;;1.20;0.60;;;;;;;;;;5049857;28;20769;-61
2023/07/05 10:40:47;;;;;;;0.52;0.50;;;;;;;;;;5050154;28;20365;-61
2023/07/05 10:43:14;;;;;;;0.60;0.50;;;;;;;;;;5054021;28;20801;-62
2023/07/05 10:45:41;;;;;;;0.43;0.43;;;;;;;;;;5034903;28;20613;-61
2023/07/05 10:48:14;;;;;;;2.40;0.55;;;;;;;;;;5039843;28;20212;-62
2023/07/05 10:50:42;;;;;;;2.63;0.40;;;;;;;;;;5047797;28;20204;-61
2023/07/05 10:53:13;;;;;;;0.32;0.30;;;;;;;;;;5043773;28;20203;-61
2023/07/05 10:55:42;;;;;;;0.47;0.47;;;;;;;;;;5041327;28;20208;-61
2023/07/05 10:58:14;;;;;;;1.33;0.30;;;;;;;;;;5042390;28;20223;-61
2023/07/05 11:00:43;;;;;;;0.47;0.40;;;;;;;;;;5040252;28;20207;-61
2023/07/05 11:03:13;;;;;;;0.50;0.50;;;;;;;;;;5045153;28;20365;-62
2023/07/05 11:05:42;;;;;;;0.30;0.30;;;;;;;;;;5045754;28;20210;-61
2023/07/05 11:08:16;;;;;;;1.05;0.60;;;;;;;;;;5040643;28;20551;-62
2023/07/05 11:10:43;;;;;;;0.30;0.30;;;;;;;;;;5047711;28;20269;-61
2023/07/05 11:13:14;;;;;;;0.40;0.40;;;;;;;;;;5047235;28;20199;-62
2023/07/05 11:15:41;;;;;;;0.65;0.40;;;;;;;;;;5045723;28;20690;-60
2023/07/05 11:18:14;;;;;;;0.40;0.40;;;;;;;;;;5045898;28;20588;-60
2023/07/05 11:20:46;;;;;;;0.35;0.35;;;;;;;;;;5043862;28;20299;-60
2023/07/05 11:23:14;;;;;;;0.30;0.30;;;;;;;;;;5043115;28;20235;-62
2023/07/05 11:25:56;;;;;;;0.80;0.70;;;;;;;;;;5048214;28;20224;-63
2023/07/05 11:28:33;;;;;;;0.32;0.32;;;;;;;;;;5046146;28;20207;-63
2023/07/05 11:31:00;;;;;;;0.50;0.50;;;;;;;;;;5043496;28;20211;-62
2023/07/05 11:33:27;;;;;;;0.68;0.68;;;;;;;;;;5048524;28;20218;-61
2023/07/05 11:35:56;;;;;;;1.10;0.70;;;;;;;;;;5041939;28;20207;-60
2023/07/05 11:38:43;;;;;;;0.43;0.43;;;;;;;;;;5047142;28;20978;-62
2023/07/05 11:41:12;;;;;;;3.55;0.60;;;;;;;;;;5036279;28;20207;-61
2023/07/05 11:43:41;;;;;;;0.60;0.60;;;;;;;;;;5041851;28;20314;-61
2023/07/05 11:46:23;;;;;;;1.25;0.60;;;;;;;;;;5040341;28;20196;-60
2023/07/05 11:48:54;;;;;;;0.93;0.75;;;;;;;;;;5036291;28;20200;-62
2023/07/05 11:51:32;;;;;;;1.17;0.70;;;;;;;;;;5041481;28;20211;-62
2023/07/05 11:54:16;;;;;;;1.65;0.57;;;;;;;;;;5047410;28;20215;-61
2023/07/05 11:56:46;;;;;;;0.55;0.55;;;;;;;;;;5041983;28;20224;-56
2023/07/05 11:59:16;;;;;;;0.65;0.65;;;;;;;;;;5047441;28;20204;-57
2023/07/05 12:01:44;;;;;;;3.75;0.75;;;;;;;;;;5045362;28;20203;-57
2023/07/05 12:04:13;;;;;;;2.28;0.60;;;;;;;;;;5043461;28;20200;-57
2023/07/05 12:06:42;;;;;;;2.53;0.63;;;;;;;;;;5037724;28;20196;-56
2023/07/05 12:09:15;;;;;;;0.60;0.60;;;;;;;;;;5038413;28;20236;-57
2023/07/05 12:11:42;;;;;;;0.75;0.75;;;;;;;;;;5033318;28;20295;-58
2023/07/05 12:14:12;;;;;;;0.80;0.80;;;;;;;;;;5037744;28;20292;-58
2023/07/05 12:16:39;;;;;;;1.20;1.20;;;;;;;;;;5035156;28;20232;-58
2023/07/05 12:19:07;;;;;;;2.60;2.40;;;;;;;;;;5039969;28;20211;-58
2023/07/05 12:21:35;;;;;;;8.80;2.90;;;;;;;;;;5036095;28;20405;-58
2023/07/05 12:24:07;;;;;;;2.58;1.50;;;;;;;;;;5036149;28;20250;-58
2023/07/05 12:26:36;;;;;;;7.45;3.72;;;;;;;;;;5040193;28;20204;-58
2023/07/05 12:29:15;;;;;;;3.42;3.08;;;;;;;;;;5034425;28;20504;-58
2023/07/05 12:31:42;;;;;;;3.47;2.28;;;;;;;;;;5041329;28;20207;-58
2023/07/05 12:34:18;;;;;;;1.02;1.00;;;;;;;;;;5044578;28;20285;-58
2023/07/05 12:36:46;;;;;;;1.48;0.90;;;;;;;;;;5036440;28;20246;-58
2023/07/05 12:39:15;;;;;;;1.48;1.00;;;;;;;;;;5047149;28;20211;-59
2023/07/05 12:41:43;;;;;;;0.90;0.70;;;;;;;;;;5046272;28;20212;-59
2023/07/05 12:44:14;;;;;;;0.68;0.68;;;;;;;;;;5047216;28;20952;-58
2023/07/05 12:46:42;;;;;;;0.75;0.70;;;;;;;;;;5046764;28;20208;-59
2023/07/05 12:49:12;;;;;;;1.77;0.55;;;;;;;;;;5045365;28;20717;-58
2023/07/05 12:51:51;;;;;;;1.08;0.77;;;;;;;;;;5046322;28;20302;-58
2023/07/05 12:54:19;;;;;;;0.70;0.70;;;;;;;;;;5047087;28;20276;-58
2023/07/05 12:56:47;;;;;;;0.50;0.50;;;;;;;;;;5046616;28;20227;-58
2023/07/05 12:59:25;;;;;;;0.75;0.60;;;;;;;;;;5039618;28;20433;-59
2023/07/05 13:01:53;;;;;;;0.50;0.50;;;;;;;;;;5040169;28;20647;-58
2023/07/05 13:04:20;;;;;;;0.90;0.90;;;;;;;;;;5046044;28;20214;-59
2023/07/05 13:06:48;;;;;;;0.63;0.63;;;;;;;;;;5047366;28;20204;-58
2023/07/05 13:09:25;;;;;;;0.60;0.60;;;;;;;;;;5034312;28;20228;-58
2023/07/05 13:11:57;;;;;;;1.65;0.65;;;;;;;;;;5029890;28;20214;-58
2023/07/05 13:14:26;;;;;;;3.40;0.73;;;;;;;;;;5027412;28;20690;-58
2023/07/05 13:16:56;;;;;;;1.15;0.98;;;;;;;;;;5034213;28;20238;-58
2023/07/05 13:19:34;;;;;;;0.60;0.60;;;;;;;;;;5041890;28;20212;-58
2023/07/05 13:22:14;;;;;;;0.47;0.47;;;;;;;;;;5027004;28;20208;-58
2023/07/05 13:24:45;;;;;;;1.13;0.90;;;;;;;;;;5027193;28;20212;-58
2023/07/05 13:27:15;;;;;;;2.65;0.77;;;;;;;;;;5027453;28;20212;-59
2023/07/05 13:29:42;;;;;;;1.85;0.70;;;;;;;;;;5026421;28;20213;-58
2023/07/05 13:32:21;;;;;;;0.57;0.57;;;;;;;;;;5032886;28;20211;-58
2023/07/05 13:34:48;;;;;;;1.38;0.73;;;;;;;;;;5046028;28;20214;-59
2023/07/05 13:37:16;;;;;;;0.60;0.60;;;;;;;;;;5037831;28;20865;-59
2023/07/05 13:39:45;;;;;;;0.85;0.43;;;;;;;;;;5026661;28;20533;-57
2023/07/05 13:42:12;;;;;;;0.73;0.70;;;;;;;;;;5034319;28;20242;-58
2023/07/05 13:44:40;;;;;;;3.60;0.80;;;;;;;;;;5046466;28;20243;-58
2023/07/05 13:47:07;;;;;;;0.60;0.60;;;;;;;;;;5045828;28;20199;-58
2023/07/05 13:49:34;;;;;;;0.73;0.70;;;;;;;;;;5046860;28;20306;-58
2023/07/05 13:52:02;;;;;;;0.70;0.70;;;;;;;;;;5046219;28;20208;-58
2023/07/05 13:54:30;;;;;;;0.73;0.70;;;;;;;;;;5040037;28;20366;-58
2023/07/05 13:56:58;;;;;;;0.98;0.60;;;;;;;;;;5043117;28;20229;-58
2023/07/05 13:59:25;;;;;;;0.73;0.73;;;;;;;;;;5045571;28;20662;-58
2023/07/05 14:01:52;;;;;;;1.02;0.50;;;;;;;;;;5045960;28;20725;-58
2023/07/05 14:04:19;;;;;;;0.85;0.82;;;;;;;;;;5034726;28;20208;-59
2023/07/05 14:06:46;;;;;;;0.60;0.60;;;;;;;;;;5044748;28;20203;-57
2023/07/05 14:09:14;;;;;;;1.02;0.90;;;;;;;;;;5045077;28;20224;-58
2023/07/05 14:11:42;;;;;;;1.25;0.90;;;;;;;;;;5046642;28;20208;-58
2023/07/05 14:14:12;;;;;;;0.98;0.90;;;;;;;;;;5026412;28;20219;-58
2023/07/05 14:16:40;;;;;;;0.80;0.80;;;;;;;;;;5026328;28;20263;-59
2023/07/05 14:19:07;;;;;;;0.88;0.80;;;;;;;;;;5026119;28;20220;-58
2023/07/05 14:21:35;;;;;;;1.50;0.75;;;;;;;;;;5029985;28;20207;-58
2023/07/05 14:24:03;;;;;;;0.60;0.60;;;;;;;;;;5046040;28;20239;-59
2023/07/05 14:26:31;;;;;;;1.08;0.93;;;;;;;;;;5044919;28;20566;-58
2023/07/05 14:28:59;;;;;;;1.50;0.90;;;;;;;;;;5045294;28;20299;-62
2023/07/05 14:31:27;;;;;;;0.70;0.70;;;;;;;;;;5044789;28;20739;-59
2023/07/05 14:33:55;;;;;;;0.85;0.85;;;;;;;;;;5026320;28;20204;-58
2023/07/05 14:36:23;;;;;;;0.60;0.60;;;;;;;;;;5029341;28;20883;-59
2023/07/05 14:38:50;;;;;;;0.77;0.77;;;;;;;;;;5045450;28;20325;-59
2023/07/05 14:41:18;;;;;;;1.48;1.13;;;;;;;;;;5044963;28;20273;-59
2023/07/05 14:43:45;;;;;;;1.70;1.10;;;;;;;;;;5043498;28;20671;-59
2023/07/05 14:46:12;;;;;;;5.00;0.90;;;;;;;;;;5047676;28;20235;-59
2023/07/05 14:48:41;;;;;;;0.80;0.80;;;;;;;;;;5048271;28;20670;-59
2023/07/05 14:51:11;;;;;;;0.70;0.70;;;;;;;;;;5048687;28;20265;-59
2023/07/05 14:53:38;;;;;;;2.05;0.70;;;;;;;;;;5049071;28;20804;-60